sensor_id;sensor_type;location;lat;lon;timestamp;pressure;altitude;pressure_sealevel;temperature;humidity
53480;BME280;56133;51.012;-1.648;2022-07-22T00:02:13;101137.69;;;17.57;100.00
53480;BME280;56133;51.012;-1.648;2022-07-22T00:04:38;101136.50;;;17.59;100.00
53480;BME280;56133;51.012;-1.648;2022-07-22T00:07:04;101125.94;;;17.56;100.00
53480;BME280;56133;51.012;-1.648;2022-07-22T00:09:29;101129.13;;;17.43;100.00
53480;BME280;56133;51.012;-1.648;2022-07-22T00:11:55;101132.53;;;17.45;100.00
53480;BME280;56133;51.012;-1.648;2022-07-22T00:14:21;101127.41;;;17.34;100.00
53480;BME280;56133;51.012;-1.648;2022-07-22T00:16:46;101119.75;;;17.29;100.00
53480;BME280;56133;51.012;-1.648;2022-07-22T00:19:12;101116.53;;;17.34;100.00
53480;BME280;56133;51.012;-1.648;2022-07-22T00:21:38;101117.88;;;17.30;100.00
53480;BME280;56133;51.012;-1.648;2022-07-22T00:24:03;101121.38;;;17.14;100.00
53480;BME280;56133;51.012;-1.648;2022-07-22T00:26:29;101122.59;;;17.20;100.00
53480;BME280;56133;51.012;-1.648;2022-07-22T00:28:55;101120.38;;;17.23;100.00
53480;BME280;56133;51.012;-1.648;2022-07-22T00:31:20;101121.91;;;17.26;100.00
53480;BME280;56133;51.012;-1.648;2022-07-22T00:33:46;101116.97;;;17.21;100.00
53480;BME280;56133;51.012;-1.648;2022-07-22T00:36:11;101120.84;;;17.10;100.00
53480;BME280;56133;51.012;-1.648;2022-07-22T00:38:38;101114.44;;;17.20;100.00
53480;BME280;56133;51.012;-1.648;2022-07-22T00:41:03;101120.25;;;17.25;100.00
53480;BME280;56133;51.012;-1.648;2022-07-22T00:43:51;101117.84;;;17.22;100.00
53480;BME280;56133;51.012;-1.648;2022-07-22T00:46:17;101123.63;;;17.27;100.00
53480;BME280;56133;51.012;-1.648;2022-07-22T00:48:43;101129.84;;;17.11;100.00
53480;BME280;56133;51.012;-1.648;2022-07-22T00:51:08;101128.66;;;17.13;100.00
53480;BME280;56133;51.012;-1.648;2022-07-22T00:53:34;101124.94;;;17.14;100.00
53480;BME280;56133;51.012;-1.648;2022-07-22T00:55:59;101130.03;;;17.18;100.00
53480;BME280;56133;51.012;-1.648;2022-07-22T00:58:25;101127.41;;;17.34;100.00
53480;BME280;56133;51.012;-1.648;2022-07-22T01:00:51;101129.31;;;17.42;100.00
53480;BME280;56133;51.012;-1.648;2022-07-22T01:03:16;101128.63;;;17.40;100.00
53480;BME280;56133;51.012;-1.648;2022-07-22T01:05:42;101128.22;;;17.26;100.00
53480;BME280;56133;51.012;-1.648;2022-07-22T01:08:07;101127.91;;;17.29;100.00
53480;BME280;56133;51.012;-1.648;2022-07-22T01:10:33;101136.09;;;17.11;100.00
53480;BME280;56133;51.012;-1.648;2022-07-22T01:12:58;101130.22;;;17.16;100.00
53480;BME280;56133;51.012;-1.648;2022-07-22T01:15:24;101130.94;;;17.26;100.00
53480;BME280;56133;51.012;-1.648;2022-07-22T01:17:49;101130.81;;;17.36;100.00
53480;BME280;56133;51.012;-1.648;2022-07-22T01:20:15;101134.56;;;17.43;100.00
53480;BME280;56133;51.012;-1.648;2022-07-22T01:22:40;101134.78;;;17.50;100.00
53480;BME280;56133;51.012;-1.648;2022-07-22T01:25:06;101143.44;;;17.54;100.00
53480;BME280;56133;51.012;-1.648;2022-07-22T01:27:32;101142.06;;;17.50;100.00
53480;BME280;56133;51.012;-1.648;2022-07-22T01:29:57;101138.16;;;17.52;100.00
53480;BME280;56133;51.012;-1.648;2022-07-22T01:32:24;101138.78;;;17.38;100.00
53480;BME280;56133;51.012;-1.648;2022-07-22T01:34:49;101136.63;;;17.41;100.00
53480;BME280;56133;51.012;-1.648;2022-07-22T01:37:15;101136.31;;;17.53;100.00
53480;BME280;56133;51.012;-1.648;2022-07-22T01:39:40;101140.34;;;17.49;100.00
53480;BME280;56133;51.012;-1.648;2022-07-22T01:42:06;101130.69;;;17.46;100.00
53480;BME280;56133;51.012;-1.648;2022-07-22T01:44:32;101129.75;;;17.29;100.00
53480;BME280;56133;51.012;-1.648;2022-07-22T01:46:58;101132.84;;;17.34;100.00
53480;BME280;56133;51.012;-1.648;2022-07-22T01:49:24;101129.09;;;17.35;100.00
53480;BME280;56133;51.012;-1.648;2022-07-22T01:51:50;101140.84;;;17.44;100.00
53480;BME280;56133;51.012;-1.648;2022-07-22T01:54:15;101125.69;;;17.33;100.00
53480;BME280;56133;51.012;-1.648;2022-07-22T01:56:41;101118.38;;;17.25;100.00
53480;BME280;56133;51.012;-1.648;2022-07-22T01:59:06;101117.94;;;17.38;100.00
53480;BME280;56133;51.012;-1.648;2022-07-22T02:01:33;101118.06;;;17.37;100.00
53480;BME280;56133;51.012;-1.648;2022-07-22T02:03:58;101119.44;;;17.33;100.00
53480;BME280;56133;51.012;-1.648;2022-07-22T02:06:23;101114.38;;;17.03;100.00
53480;BME280;56133;51.012;-1.648;2022-07-22T02:08:49;101116.53;;;16.99;100.00
53480;BME280;56133;51.012;-1.648;2022-07-22T02:11:14;101118.72;;;16.96;100.00
53480;BME280;56133;51.012;-1.648;2022-07-22T02:13:40;101120.13;;;17.08;100.00
53480;BME280;56133;51.012;-1.648;2022-07-22T02:16:05;101108.81;;;17.13;100.00
53480;BME280;56133;51.012;-1.648;2022-07-22T02:18:31;101118.97;;;17.11;100.00
53480;BME280;56133;51.012;-1.648;2022-07-22T02:20:56;101114.25;;;17.13;100.00
53480;BME280;56133;51.012;-1.648;2022-07-22T02:23:22;101114.88;;;17.07;100.00
53480;BME280;56133;51.012;-1.648;2022-07-22T02:25:47;101119.31;;;17.08;100.00
53480;BME280;56133;51.012;-1.648;2022-07-22T02:28:13;101115.56;;;17.09;100.00
53480;BME280;56133;51.012;-1.648;2022-07-22T02:30:38;101109.13;;;17.10;100.00
53480;BME280;56133;51.012;-1.648;2022-07-22T02:33:04;101107.53;;;16.99;100.00
53480;BME280;56133;51.012;-1.648;2022-07-22T02:35:29;101105.16;;;16.96;100.00
53480;BME280;56133;51.012;-1.648;2022-07-22T02:37:55;101116.69;;;16.98;100.00
53480;BME280;56133;51.012;-1.648;2022-07-22T02:40:20;101102.56;;;16.94;100.00
53480;BME280;56133;51.012;-1.648;2022-07-22T02:42:46;101113.22;;;16.88;99.16
53480;BME280;56133;51.012;-1.648;2022-07-22T02:45:11;101100.97;;;16.83;96.36
53480;BME280;56133;51.012;-1.648;2022-07-22T02:47:51;101098.78;;;16.87;95.19
53480;BME280;56133;51.012;-1.648;2022-07-22T02:50:17;101105.53;;;16.83;94.66
53480;BME280;56133;51.012;-1.648;2022-07-22T02:52:42;101106.19;;;16.77;94.95
53480;BME280;56133;51.012;-1.648;2022-07-22T02:55:08;101103.50;;;16.77;94.08
53480;BME280;56133;51.012;-1.648;2022-07-22T02:57:34;101099.88;;;16.68;94.30
53480;BME280;56133;51.012;-1.648;2022-07-22T03:00:00;101103.28;;;16.70;93.07
53480;BME280;56133;51.012;-1.648;2022-07-22T03:02:26;101092.75;;;16.67;93.59
53480;BME280;56133;51.012;-1.648;2022-07-22T03:04:51;101096.09;;;16.61;93.51
53480;BME280;56133;51.012;-1.648;2022-07-22T03:07:17;101088.81;;;16.61;93.34
53480;BME280;56133;51.012;-1.648;2022-07-22T03:09:42;101085.19;;;16.52;94.14
53480;BME280;56133;51.012;-1.648;2022-07-22T03:12:10;101084.50;;;16.50;94.18
53480;BME280;56133;51.012;-1.648;2022-07-22T03:14:35;101071.94;;;16.49;93.95
53480;BME280;56133;51.012;-1.648;2022-07-22T03:17:01;101070.25;;;16.48;93.85
53480;BME280;56133;51.012;-1.648;2022-07-22T03:19:26;101069.16;;;16.41;94.49
53480;BME280;56133;51.012;-1.648;2022-07-22T03:21:52;101070.66;;;16.35;95.03
53480;BME280;56133;51.012;-1.648;2022-07-22T03:24:17;101065.91;;;16.37;94.62
53480;BME280;56133;51.012;-1.648;2022-07-22T03:26:43;101071.81;;;16.33;93.71
53480;BME280;56133;51.012;-1.648;2022-07-22T03:29:08;101066.22;;;16.34;94.24
53480;BME280;56133;51.012;-1.648;2022-07-22T03:31:34;101064.91;;;16.38;93.76
53480;BME280;56133;51.012;-1.648;2022-07-22T03:33:59;101061.88;;;16.42;93.49
53480;BME280;56133;51.012;-1.648;2022-07-22T03:36:27;101062.91;;;16.41;93.43
53480;BME280;56133;51.012;-1.648;2022-07-22T03:38:54;101067.44;;;16.40;93.24
53480;BME280;56133;51.012;-1.648;2022-07-22T03:41:20;101071.25;;;16.47;93.19
53480;BME280;56133;51.012;-1.648;2022-07-22T03:43:46;101072.63;;;16.51;92.14
53480;BME280;56133;51.012;-1.648;2022-07-22T03:46:12;101069.13;;;16.59;92.36
53480;BME280;56133;51.012;-1.648;2022-07-22T03:48:38;101071.88;;;16.67;90.73
53480;BME280;56133;51.012;-1.648;2022-07-22T03:51:03;101059.13;;;16.60;90.95
53480;BME280;56133;51.012;-1.648;2022-07-22T03:53:29;101057.63;;;16.65;90.39
53480;BME280;56133;51.012;-1.648;2022-07-22T03:55:54;101058.78;;;16.63;89.77
53480;BME280;56133;51.012;-1.648;2022-07-22T03:58:20;101049.81;;;16.62;89.69
53480;BME280;56133;51.012;-1.648;2022-07-22T04:00:45;101046.41;;;16.60;89.90
53480;BME280;56133;51.012;-1.648;2022-07-22T04:03:11;101042.50;;;16.54;89.38
53480;BME280;56133;51.012;-1.648;2022-07-22T04:05:36;101039.22;;;16.51;89.83
53480;BME280;56133;51.012;-1.648;2022-07-22T04:08:01;101028.03;;;16.46;89.44
53480;BME280;56133;51.012;-1.648;2022-07-22T04:10:27;101036.69;;;16.49;89.27
53480;BME280;56133;51.012;-1.648;2022-07-22T04:12:52;101030.19;;;16.42;89.44
53480;BME280;56133;51.012;-1.648;2022-07-22T04:15:18;101027.47;;;16.42;89.25
53480;BME280;56133;51.012;-1.648;2022-07-22T04:17:43;101026.44;;;16.35;90.21
53480;BME280;56133;51.012;-1.648;2022-07-22T04:20:09;101018.53;;;16.23;90.56
53480;BME280;56133;51.012;-1.648;2022-07-22T04:22:34;101012.09;;;16.24;91.72
53480;BME280;56133;51.012;-1.648;2022-07-22T04:25:00;101016.47;;;16.17;91.16
53480;BME280;56133;51.012;-1.648;2022-07-22T04:27:25;101015.47;;;16.00;93.16
53480;BME280;56133;51.012;-1.648;2022-07-22T04:29:51;101017.81;;;15.95;93.33
53480;BME280;56133;51.012;-1.648;2022-07-22T04:32:16;101010.31;;;15.89;93.96
53480;BME280;56133;51.012;-1.648;2022-07-22T04:34:41;101012.03;;;15.90;94.79
53480;BME280;56133;51.012;-1.648;2022-07-22T04:37:07;101016.56;;;15.89;94.99
53480;BME280;56133;51.012;-1.648;2022-07-22T04:39:33;101018.75;;;15.86;95.35
53480;BME280;56133;51.012;-1.648;2022-07-22T04:41:58;101020.91;;;15.82;95.55
53480;BME280;56133;51.012;-1.648;2022-07-22T04:44:24;101017.50;;;15.80;96.82
53480;BME280;56133;51.012;-1.648;2022-07-22T04:46:49;101022.38;;;15.76;96.40
53480;BME280;56133;51.012;-1.648;2022-07-22T04:49:15;101025.09;;;15.76;97.02
53480;BME280;56133;51.012;-1.648;2022-07-22T04:51:40;101023.34;;;15.85;96.66
53480;BME280;56133;51.012;-1.648;2022-07-22T04:54:06;101030.97;;;15.90;96.70
53480;BME280;56133;51.012;-1.648;2022-07-22T04:56:31;101032.81;;;15.89;96.16
53480;BME280;56133;51.012;-1.648;2022-07-22T04:58:56;101040.34;;;15.96;96.37
53480;BME280;56133;51.012;-1.648;2022-07-22T05:01:22;101028.50;;;15.97;95.76
53480;BME280;56133;51.012;-1.648;2022-07-22T05:03:47;101038.88;;;16.01;96.61
53480;BME280;56133;51.012;-1.648;2022-07-22T05:06:13;101037.25;;;16.08;95.68
53480;BME280;56133;51.012;-1.648;2022-07-22T05:08:39;101034.91;;;16.14;95.34
53480;BME280;56133;51.012;-1.648;2022-07-22T05:11:05;101033.75;;;16.16;95.16
53480;BME280;56133;51.012;-1.648;2022-07-22T05:13:30;101026.13;;;16.20;94.62
53480;BME280;56133;51.012;-1.648;2022-07-22T05:15:55;101029.38;;;16.23;94.86
53480;BME280;56133;51.012;-1.648;2022-07-22T05:18:21;101028.06;;;16.28;95.88
53480;BME280;56133;51.012;-1.648;2022-07-22T05:20:46;101018.91;;;16.29;95.72
53480;BME280;56133;51.012;-1.648;2022-07-22T05:23:12;101016.09;;;16.38;94.63
53480;BME280;56133;51.012;-1.648;2022-07-22T05:25:37;101014.25;;;16.39;94.48
53480;BME280;56133;51.012;-1.648;2022-07-22T05:28:03;101028.22;;;16.52;93.18
53480;BME280;56133;51.012;-1.648;2022-07-22T05:30:28;101022.63;;;16.54;93.53
53480;BME280;56133;51.012;-1.648;2022-07-22T05:32:54;101023.22;;;16.66;92.77
53480;BME280;56133;51.012;-1.648;2022-07-22T05:35:20;101028.16;;;16.71;92.58
53480;BME280;56133;51.012;-1.648;2022-07-22T05:37:46;101028.69;;;16.74;92.33
53480;BME280;56133;51.012;-1.648;2022-07-22T05:40:12;101024.13;;;16.75;93.27
53480;BME280;56133;51.012;-1.648;2022-07-22T05:42:37;101025.19;;;16.82;92.99
53480;BME280;56133;51.012;-1.648;2022-07-22T05:45:03;101017.34;;;16.79;92.85
53480;BME280;56133;51.012;-1.648;2022-07-22T05:47:29;101019.69;;;16.74;93.54
53480;BME280;56133;51.012;-1.648;2022-07-22T05:49:55;101025.31;;;16.80;92.92
53480;BME280;56133;51.012;-1.648;2022-07-22T05:52:20;101017.78;;;16.66;93.52
53480;BME280;56133;51.012;-1.648;2022-07-22T05:54:45;101019.31;;;16.68;94.03
53480;BME280;56133;51.012;-1.648;2022-07-22T05:57:11;101018.59;;;16.58;94.70
53480;BME280;56133;51.012;-1.648;2022-07-22T05:59:36;101017.78;;;16.66;95.17
53480;BME280;56133;51.012;-1.648;2022-07-22T06:02:02;101021.19;;;16.68;95.52
53480;BME280;56133;51.012;-1.648;2022-07-22T06:04:28;101019.00;;;16.72;95.27
53480;BME280;56133;51.012;-1.648;2022-07-22T06:06:54;101020.00;;;16.71;94.84
53480;BME280;56133;51.012;-1.648;2022-07-22T06:09:19;101023.94;;;16.76;94.16
53480;BME280;56133;51.012;-1.648;2022-07-22T06:11:45;101023.47;;;16.81;95.41
53480;BME280;56133;51.012;-1.648;2022-07-22T06:14:10;101025.84;;;16.84;95.33
53480;BME280;56133;51.012;-1.648;2022-07-22T06:16:36;101026.34;;;16.79;94.15
53480;BME280;56133;51.012;-1.648;2022-07-22T06:19:02;101027.84;;;16.74;94.80
53480;BME280;56133;51.012;-1.648;2022-07-22T06:21:27;101034.34;;;16.81;94.83
53480;BME280;56133;51.012;-1.648;2022-07-22T06:23:53;101025.50;;;16.79;95.09
53480;BME280;56133;51.012;-1.648;2022-07-22T06:26:18;101018.25;;;16.88;94.24
53480;BME280;56133;51.012;-1.648;2022-07-22T06:28:44;101021.66;;;16.90;94.03
53480;BME280;56133;51.012;-1.648;2022-07-22T06:31:10;101019.88;;;17.07;93.47
53480;BME280;56133;51.012;-1.648;2022-07-22T06:33:35;101023.84;;;17.21;92.88
53480;BME280;56133;51.012;-1.648;2022-07-22T06:36:01;101021.22;;;17.03;92.44
53480;BME280;56133;51.012;-1.648;2022-07-22T06:38:27;101023.00;;;17.37;92.07
53480;BME280;56133;51.012;-1.648;2022-07-22T06:40:52;101018.47;;;17.54;89.51
53480;BME280;56133;51.012;-1.648;2022-07-22T06:43:18;101013.22;;;17.60;90.27
53480;BME280;56133;51.012;-1.648;2022-07-22T06:45:43;101015.78;;;17.54;88.99
53480;BME280;56133;51.012;-1.648;2022-07-22T06:48:09;101013.91;;;17.63;89.05
53480;BME280;56133;51.012;-1.648;2022-07-22T06:50:34;101017.63;;;17.70;88.76
53480;BME280;56133;51.012;-1.648;2022-07-22T06:53:00;101016.47;;;17.72;89.37
53480;BME280;56133;51.012;-1.648;2022-07-22T06:55:25;101004.25;;;17.93;88.47
53480;BME280;56133;51.012;-1.648;2022-07-22T06:57:51;101002.72;;;17.90;87.91
53480;BME280;56133;51.012;-1.648;2022-07-22T07:00:17;101003.94;;;18.04;87.56
53480;BME280;56133;51.012;-1.648;2022-07-22T07:02:42;101007.66;;;18.12;87.49
53480;BME280;56133;51.012;-1.648;2022-07-22T07:05:08;101009.34;;;17.88;87.66
53480;BME280;56133;51.012;-1.648;2022-07-22T07:07:34;101014.94;;;17.86;88.12
53480;BME280;56133;51.012;-1.648;2022-07-22T07:10:00;101011.53;;;17.93;88.97
53480;BME280;56133;51.012;-1.648;2022-07-22T07:12:26;101017.34;;;17.81;88.74
53480;BME280;56133;51.012;-1.648;2022-07-22T07:14:51;101021.56;;;17.84;89.13
53480;BME280;56133;51.012;-1.648;2022-07-22T07:17:17;101017.66;;;17.86;89.42
53480;BME280;56133;51.012;-1.648;2022-07-22T07:19:42;101015.47;;;17.98;88.75
53480;BME280;56133;51.012;-1.648;2022-07-22T07:22:08;101012.41;;;18.26;88.41
53480;BME280;56133;51.012;-1.648;2022-07-22T07:24:33;101016.81;;;18.44;86.37
53480;BME280;56133;51.012;-1.648;2022-07-22T07:26:58;101009.50;;;18.44;85.35
53480;BME280;56133;51.012;-1.648;2022-07-22T07:29:24;101011.41;;;18.02;87.41
53480;BME280;56133;51.012;-1.648;2022-07-22T07:31:50;101007.16;;;18.08;88.86
53480;BME280;56133;51.012;-1.648;2022-07-22T07:34:15;101007.31;;;18.23;87.63
53480;BME280;56133;51.012;-1.648;2022-07-22T07:36:41;101002.44;;;18.66;86.18
53480;BME280;56133;51.012;-1.648;2022-07-22T07:39:06;101004.06;;;18.92;84.88
53480;BME280;56133;51.012;-1.648;2022-07-22T07:41:32;101005.31;;;18.81;82.74
53480;BME280;56133;51.012;-1.648;2022-07-22T07:43:57;101006.53;;;19.19;83.67
53480;BME280;56133;51.012;-1.648;2022-07-22T07:46:23;101009.25;;;19.19;81.95
53480;BME280;56133;51.012;-1.648;2022-07-22T07:48:48;101011.94;;;18.95;83.59
53480;BME280;56133;51.012;-1.648;2022-07-22T07:51:14;101003.81;;;18.71;83.62
53480;BME280;56133;51.012;-1.648;2022-07-22T07:53:40;101014.47;;;18.97;83.44
53480;BME280;56133;51.012;-1.648;2022-07-22T07:56:06;101011.53;;;19.07;81.99
53480;BME280;56133;51.012;-1.648;2022-07-22T07:58:31;101018.09;;;19.21;82.01
53480;BME280;56133;51.012;-1.648;2022-07-22T08:00:56;101004.28;;;19.54;82.73
53480;BME280;56133;51.012;-1.648;2022-07-22T08:03:22;101010.69;;;20.08;77.76
53480;BME280;56133;51.012;-1.648;2022-07-22T08:05:47;100995.53;;;20.05;75.71
53480;BME280;56133;51.012;-1.648;2022-07-22T08:08:13;100992.88;;;19.74;78.65
53480;BME280;56133;51.012;-1.648;2022-07-22T08:10:38;100997.13;;;19.76;78.54
53480;BME280;56133;51.012;-1.648;2022-07-22T08:13:04;101001.84;;;19.59;78.70
53480;BME280;56133;51.012;-1.648;2022-07-22T08:15:30;101014.78;;;19.34;78.86
53480;BME280;56133;51.012;-1.648;2022-07-22T08:17:56;101016.66;;;19.33;79.41
53480;BME280;56133;51.012;-1.648;2022-07-22T08:20:23;101007.47;;;19.34;80.49
53480;BME280;56133;51.012;-1.648;2022-07-22T08:22:49;101013.38;;;19.46;78.35
53480;BME280;56133;51.012;-1.648;2022-07-22T08:25:15;101003.13;;;19.17;79.52
53480;BME280;56133;51.012;-1.648;2022-07-22T08:27:41;101012.47;;;19.22;79.79
53480;BME280;56133;51.012;-1.648;2022-07-22T08:30:06;101008.56;;;19.48;79.30
53480;BME280;56133;51.012;-1.648;2022-07-22T08:32:33;101003.03;;;19.88;77.19
53480;BME280;56133;51.012;-1.648;2022-07-22T08:34:59;100999.78;;;19.61;79.11
53480;BME280;56133;51.012;-1.648;2022-07-22T08:37:24;101001.09;;;19.97;81.17
53480;BME280;56133;51.012;-1.648;2022-07-22T08:39:50;101001.44;;;19.94;75.80
53480;BME280;56133;51.012;-1.648;2022-07-22T08:42:15;101002.53;;;20.23;76.19
53480;BME280;56133;51.012;-1.648;2022-07-22T08:44:41;101005.66;;;19.50;76.61
53480;BME280;56133;51.012;-1.648;2022-07-22T08:47:06;101016.75;;;19.17;78.65
53480;BME280;56133;51.012;-1.648;2022-07-22T08:49:32;100999.66;;;19.54;77.53
53480;BME280;56133;51.012;-1.648;2022-07-22T08:51:57;101000.78;;;19.92;75.61
53480;BME280;56133;51.012;-1.648;2022-07-22T08:54:23;100998.84;;;20.15;74.89
53480;BME280;56133;51.012;-1.648;2022-07-22T08:56:50;101001.66;;;20.45;74.85
53480;BME280;56133;51.012;-1.648;2022-07-22T08:59:16;101006.31;;;20.22;73.56
53480;BME280;56133;51.012;-1.648;2022-07-22T09:02:07;101005.28;;;20.23;73.36
53480;BME280;56133;51.012;-1.648;2022-07-22T09:04:53;101000.13;;;20.28;74.40
53480;BME280;56133;51.012;-1.648;2022-07-22T09:09:56;101015.56;;;19.97;74.48
53480;BME280;56133;51.012;-1.648;2022-07-22T09:12:21;101009.53;;;19.79;76.34
53480;BME280;56133;51.012;-1.648;2022-07-22T09:14:50;101010.81;;;20.14;75.07
53480;BME280;56133;51.012;-1.648;2022-07-22T09:17:30;101012.91;;;20.27;73.70
53480;BME280;56133;51.012;-1.648;2022-07-22T09:19:58;101018.03;;;20.07;74.73
53480;BME280;56133;51.012;-1.648;2022-07-22T09:25:35;101009.31;;;19.89;76.80
53480;BME280;56133;51.012;-1.648;2022-07-22T09:30:35;101009.34;;;19.57;76.72
53480;BME280;56133;51.012;-1.648;2022-07-22T09:33:01;101005.81;;;19.48;77.58
53480;BME280;56133;51.012;-1.648;2022-07-22T09:35:28;101009.78;;;19.14;78.07
53480;BME280;56133;51.012;-1.648;2022-07-22T09:40:27;100996.53;;;19.11;78.86
53480;BME280;56133;51.012;-1.648;2022-07-22T09:42:54;100994.06;;;18.85;79.70
53480;BME280;56133;51.012;-1.648;2022-07-22T09:45:22;100983.34;;;19.23;79.35
53480;BME280;56133;51.012;-1.648;2022-07-22T09:47:49;100976.13;;;19.62;76.80
53480;BME280;56133;51.012;-1.648;2022-07-22T09:50:31;100982.47;;;19.77;78.05
53480;BME280;56133;51.012;-1.648;2022-07-22T09:52:59;100981.44;;;19.78;75.83
53480;BME280;56133;51.012;-1.648;2022-07-22T09:55:26;100985.13;;;19.85;76.43
53480;BME280;56133;51.012;-1.648;2022-07-22T09:57:54;100986.50;;;19.81;77.96
53480;BME280;56133;51.012;-1.648;2022-07-22T10:00:22;100987.78;;;19.47;76.02
53480;BME280;56133;51.012;-1.648;2022-07-22T10:02:52;100992.22;;;19.48;76.18
53480;BME280;56133;51.012;-1.648;2022-07-22T10:05:20;100994.19;;;19.31;78.45
53480;BME280;56133;51.012;-1.648;2022-07-22T10:07:47;100994.94;;;19.48;77.70
53480;BME280;56133;51.012;-1.648;2022-07-22T10:10:15;100988.53;;;19.64;77.51
53480;BME280;56133;51.012;-1.648;2022-07-22T10:12:42;100994.75;;;19.50;76.92
53480;BME280;56133;51.012;-1.648;2022-07-22T10:15:09;100996.38;;;19.82;75.07
53480;BME280;56133;51.012;-1.648;2022-07-22T10:17:37;100997.81;;;19.78;76.41
53480;BME280;56133;51.012;-1.648;2022-07-22T10:20:05;100998.59;;;19.64;76.35
53480;BME280;56133;51.012;-1.648;2022-07-22T10:25:12;101008.06;;;19.13;78.08
53480;BME280;56133;51.012;-1.648;2022-07-22T10:27:50;101003.84;;;19.10;77.83
53480;BME280;56133;51.012;-1.648;2022-07-22T10:30:22;101011.75;;;18.97;78.81
53480;BME280;56133;51.012;-1.648;2022-07-22T10:35:28;100994.31;;;19.38;78.33
53480;BME280;56133;51.012;-1.648;2022-07-22T10:37:56;101008.00;;;19.30;78.32
53480;BME280;56133;51.012;-1.648;2022-07-22T10:40:27;100999.22;;;19.66;75.88
53480;BME280;56133;51.012;-1.648;2022-07-22T10:43:03;100991.72;;;19.45;75.50
53480;BME280;56133;51.012;-1.648;2022-07-22T10:45:39;100994.97;;;19.17;74.36
53480;BME280;56133;51.012;-1.648;2022-07-22T10:48:19;100984.88;;;19.25;74.51
53480;BME280;56133;51.012;-1.648;2022-07-22T10:51:04;100975.44;;;19.60;73.10
53480;BME280;56133;51.012;-1.648;2022-07-22T10:53:52;100969.72;;;20.16;68.30
53480;BME280;56133;51.012;-1.648;2022-07-22T10:59:12;100974.25;;;20.39;67.26
53480;BME280;56133;51.012;-1.648;2022-07-22T11:01:41;100978.28;;;20.43;65.37
53480;BME280;56133;51.012;-1.648;2022-07-22T11:04:22;100971.22;;;20.93;66.91
53480;BME280;56133;51.012;-1.648;2022-07-22T11:06:50;100979.25;;;20.95;65.57
53480;BME280;56133;51.012;-1.648;2022-07-22T11:09:18;100976.53;;;20.65;65.33
53480;BME280;56133;51.012;-1.648;2022-07-22T11:11:52;100974.38;;;21.49;62.49
53480;BME280;56133;51.012;-1.648;2022-07-22T11:16:58;100967.41;;;21.46;64.72
53480;BME280;56133;51.012;-1.648;2022-07-22T11:19:28;100968.50;;;22.17;60.33
53480;BME280;56133;51.012;-1.648;2022-07-22T11:21:56;100967.88;;;22.22;58.97
53480;BME280;56133;51.012;-1.648;2022-07-22T11:24:23;100970.19;;;21.68;62.51
53480;BME280;56133;51.012;-1.648;2022-07-22T11:26:52;100973.94;;;21.89;61.01
53480;BME280;56133;51.012;-1.648;2022-07-22T11:29:27;100965.44;;;22.62;59.05
53480;BME280;56133;51.012;-1.648;2022-07-22T11:31:54;100967.47;;;23.77;56.42
53480;BME280;56133;51.012;-1.648;2022-07-22T11:34:20;100960.91;;;23.65;58.38
53480;BME280;56133;51.012;-1.648;2022-07-22T11:36:48;100970.66;;;22.28;61.08
53480;BME280;56133;51.012;-1.648;2022-07-22T11:39:18;100964.75;;;21.96;61.83
53480;BME280;56133;51.012;-1.648;2022-07-22T11:41:44;100963.25;;;22.22;62.31
53480;BME280;56133;51.012;-1.648;2022-07-22T11:44:10;100959.44;;;22.87;60.37
53480;BME280;56133;51.012;-1.648;2022-07-22T11:46:40;100948.88;;;23.53;57.97
53480;BME280;56133;51.012;-1.648;2022-07-22T11:49:07;100963.91;;;23.08;58.39
53480;BME280;56133;51.012;-1.648;2022-07-22T11:51:36;100954.31;;;22.77;60.15
53480;BME280;56133;51.012;-1.648;2022-07-22T11:54:04;100954.88;;;22.59;60.32
53480;BME280;56133;51.012;-1.648;2022-07-22T11:56:30;100942.28;;;22.36;61.19
53480;BME280;56133;51.012;-1.648;2022-07-22T11:58:56;100937.78;;;22.22;61.67
53480;BME280;56133;51.012;-1.648;2022-07-22T12:01:26;100947.03;;;22.21;61.83
53480;BME280;56133;51.012;-1.648;2022-07-22T12:04:01;100950.59;;;21.64;63.05
53480;BME280;56133;51.012;-1.648;2022-07-22T12:08:56;100940.59;;;21.57;64.70
53480;BME280;56133;51.012;-1.648;2022-07-22T12:11:23;100944.56;;;21.54;64.42
53480;BME280;56133;51.012;-1.648;2022-07-22T12:13:51;100931.91;;;22.53;61.72
53480;BME280;56133;51.012;-1.648;2022-07-22T12:16:30;100934.00;;;23.13;58.45
53480;BME280;56133;51.012;-1.648;2022-07-22T12:19:01;100934.13;;;24.21;55.81
53480;BME280;56133;51.012;-1.648;2022-07-22T12:21:29;100928.63;;;22.78;57.71
53480;BME280;56133;51.012;-1.648;2022-07-22T12:24:01;100939.47;;;23.07;60.23
53480;BME280;56133;51.012;-1.648;2022-07-22T12:29:48;100936.03;;;22.84;57.58
53480;BME280;56133;51.012;-1.648;2022-07-22T12:37:28;100942.81;;;22.18;61.22
53480;BME280;56133;51.012;-1.648;2022-07-22T12:42:32;100940.63;;;22.77;60.68
53480;BME280;56133;51.012;-1.648;2022-07-22T12:50:22;100929.09;;;24.04;56.66
53480;BME280;56133;51.012;-1.648;2022-07-22T12:52:49;100931.56;;;25.63;52.23
53480;BME280;56133;51.012;-1.648;2022-07-22T12:55:15;100925.03;;;26.70;47.11
53480;BME280;56133;51.012;-1.648;2022-07-22T12:57:41;100920.53;;;26.39;51.06
53480;BME280;56133;51.012;-1.648;2022-07-22T13:00:07;100922.97;;;26.84;47.08
53480;BME280;56133;51.012;-1.648;2022-07-22T13:02:33;100924.22;;;27.00;45.27
53480;BME280;56133;51.012;-1.648;2022-07-22T13:04:59;100919.56;;;28.21;41.65
53480;BME280;56133;51.012;-1.648;2022-07-22T13:07:25;100924.41;;;26.87;42.37
53480;BME280;56133;51.012;-1.648;2022-07-22T13:09:51;100927.94;;;25.37;43.40
53480;BME280;56133;51.012;-1.648;2022-07-22T13:12:16;100919.59;;;25.18;45.70
53480;BME280;56133;51.012;-1.648;2022-07-22T13:14:42;100920.09;;;25.40;45.78
53480;BME280;56133;51.012;-1.648;2022-07-22T13:17:07;100921.53;;;26.00;45.27